Time;durP1;ratioP1;P1;durP2;ratioP2;P2;SDS_P1;SDS_P2;PMS_P1;PMS_P2;Temp;Humidity;BMP_temperature;BMP_pressure;BME280_temperature;BME280_humidity;BME280_pressure;Samples;Min_cycle;Max_cycle;Signal;HPM_P1;HPM_P2
2021/12/18 00:00:33;;;;;;;6.32;3.10;;;10.40;99.60;;;;;;5077247;28;20414;-77
2021/12/18 00:02:59;;;;;;;7.10;3.10;;;10.30;99.60;;;;;;5077531;28;20120;-77
2021/12/18 00:05:25;;;;;;;6.18;3.10;;;10.30;99.60;;;;;;5095387;28;20073;-76
2021/12/18 00:07:51;;;;;;;7.43;2.67;;;10.30;99.60;;;;;;5095436;28;20028;-76
2021/12/18 00:10:20;;;;;;;6.60;3.20;;;10.40;99.60;;;;;;5077356;28;20082;-77
2021/12/18 00:12:49;;;;;;;6.57;3.15;;;10.30;99.60;;;;;;5076988;28;20020;-77
2021/12/18 00:15:24;;;;;;;7.47;3.45;;;10.30;99.60;;;;;;5077306;28;20044;-77
2021/12/18 00:17:51;;;;;;;5.82;2.85;;;10.40;99.60;;;;;;5077458;28;20032;-78
2021/12/18 00:20:17;;;;;;;6.65;2.97;;;10.30;99.60;;;;;;5077220;28;20061;-77
2021/12/18 00:22:44;;;;;;;8.25;3.72;;;10.30;99.60;;;;;;5095102;28;20023;-78
2021/12/18 00:25:11;;;;;;;6.32;2.85;;;10.30;99.60;;;;;;5095416;28;20028;-77
2021/12/18 00:27:37;;;;;;;6.55;2.60;;;10.30;99.60;;;;;;5094741;28;20061;-77
2021/12/18 00:30:04;;;;;;;6.82;3.38;;;10.30;99.60;;;;;;5095254;28;20107;-77
2021/12/18 00:32:30;;;;;;;7.03;2.90;;;10.30;99.60;;;;;;5076519;28;20020;-76
2021/12/18 00:34:56;;;;;;;7.00;3.33;;;10.30;99.70;;;;;;5095002;28;20020;-76
2021/12/18 00:37:21;;;;;;;5.90;2.65;;;10.30;99.70;;;;;;5095325;28;20107;-76
2021/12/18 00:39:58;;;;;;;6.57;3.20;;;10.30;99.90;;;;;;5094784;28;20032;-77
2021/12/18 00:44:50;;;;;;;6.57;3.38;;;10.30;99.60;;;;;;5095266;28;20036;-78
2021/12/18 00:47:17;;;;;;;7.05;3.53;;;10.30;99.60;;;;;;5094613;28;20058;-76
2021/12/18 00:49:43;;;;;;;6.07;3.15;;;10.30;99.60;;;;;;5076297;28;20099;-77
2021/12/18 00:52:09;;;;;;;5.50;2.40;;;10.30;99.60;;;;;;5094959;28;20024;-77
2021/12/18 00:54:35;;;;;;;7.05;3.22;;;10.30;99.60;;;;;;5076169;28;20023;-76
2021/12/18 00:57:02;;;;;;;6.28;2.58;;;10.30;99.60;;;;;;5076948;28;20043;-77
2021/12/18 00:59:28;;;;;;;4.80;2.38;;;10.40;99.60;;;;;;5075345;28;20111;-78
2021/12/18 01:01:54;;;;;;;7.47;2.50;;;10.30;99.60;;;;;;5094807;28;20028;-78
2021/12/18 01:04:20;;;;;;;6.18;3.00;;;10.30;99.60;;;;;;5076666;28;20024;-77
2021/12/18 01:06:45;;;;;;;4.55;2.33;;;10.30;99.60;;;;;;5076648;28;20295;-77
2021/12/18 01:09:11;;;;;;;6.55;3.08;;;10.40;99.60;;;;;;5102386;28;20440;-77
2021/12/18 01:25:12;;;;;;;6.75;2.70;;;10.40;99.60;;;;;;5094046;28;20491;-77
2021/12/18 01:27:38;;;;;;;6.40;2.55;;;10.40;99.60;;;;;;5093796;28;20020;-76
2021/12/18 01:30:08;;;;;;;7.15;3.03;;;10.30;99.60;;;;;;5076066;28;20499;-77
2021/12/18 01:32:33;;;;;;;6.15;2.88;;;10.40;99.60;;;;;;5075270;28;20024;-77
2021/12/18 01:34:59;;;;;;;4.95;2.25;;;10.40;99.60;;;;;;5075836;28;20027;-76
2021/12/18 01:37:26;;;;;;;4.53;2.20;;;10.40;99.60;;;;;;5075890;28;20035;-76
2021/12/18 01:39:53;;;;;;;5.28;2.33;;;10.30;99.60;;;;;;5093589;28;20035;-76
2021/12/18 01:45:16;;;;;;;6.13;2.38;;;10.30;99.60;;;;;;5095670;28;20085;-76
2021/12/18 01:53:11;;;;;;;5.38;2.17;;;10.30;99.60;;;;;;5093944;28;20502;-77
2021/12/18 01:55:39;;;;;;;4.13;2.10;;;10.30;99.60;;;;;;5092930;28;20424;-77
2021/12/18 01:58:05;;;;;;;6.07;2.40;;;10.30;99.60;;;;;;5093646;28;20109;-78
2021/12/18 02:00:37;;;;;;;7.50;2.75;;;10.30;99.60;;;;;;5092401;28;20012;-77
2021/12/18 02:03:04;;;;;;;5.55;2.60;;;10.30;99.60;;;;;;5094928;28;20028;-87
2021/12/18 02:05:30;;;;;;;7.60;2.50;;;10.30;99.60;;;;;;5078666;28;20093;-88
2021/12/18 02:07:58;;;;;;;6.65;2.75;;;10.30;99.60;;;;;;5097722;28;20020;-88
2021/12/18 02:10:28;;;;;;;4.55;2.10;;;10.30;99.50;;;;;;5103068;28;20032;-87
2021/12/18 02:13:03;;;;;;;5.95;2.58;;;10.30;99.60;;;;;;5093198;28;20020;-87
2021/12/18 02:21:17;;;;;;;7.13;3.00;;;10.30;99.60;;;;;;5024141;28;20429;-87
2021/12/18 02:23:44;;;;;;;5.50;2.70;;;10.30;99.60;;;;;;5077843;28;20042;-87
2021/12/18 02:26:10;;;;;;;5.68;2.17;;;10.30;99.60;;;;;;5081663;28;20028;-87
2021/12/18 02:28:36;;;;;;;7.85;3.97;;;10.30;99.60;;;;;;5078072;28;20119;-88
2021/12/18 02:31:03;;;;;;;6.75;2.88;;;10.30;99.60;;;;;;5077623;28;20028;-88
2021/12/18 02:33:29;;;;;;;6.22;2.75;;;10.20;99.60;;;;;;5077848;28;20028;-88
2021/12/18 02:35:57;;;;;;;5.75;2.63;;;10.20;99.70;;;;;;5077942;28;20073;-87
2021/12/18 02:38:30;;;;;;;6.75;2.70;;;10.20;99.70;;;;;;5084259;28;20028;-87
2021/12/18 02:41:12;;;;;;;5.03;2.53;;;10.20;99.70;;;;;;5078364;28;20024;-87
2021/12/18 02:43:40;;;;;;;4.68;2.30;;;10.20;99.70;;;;;;5077860;28;20032;-87
2021/12/18 02:46:09;;;;;;;5.05;2.03;;;10.20;99.70;;;;;;5077313;28;20020;-88
2021/12/18 02:48:40;;;;;;;4.97;2.10;;;10.20;99.60;;;;;;5077224;28;20412;-86
2021/12/18 02:51:09;;;;;;;6.78;2.90;;;10.20;99.60;;;;;;5079833;28;20020;-87
2021/12/18 02:53:36;;;;;;;7.75;2.40;;;10.30;99.70;;;;;;5104252;28;20036;-86
2021/12/18 02:56:05;;;;;;;5.20;2.58;;;10.30;99.60;;;;;;5099800;28;20024;-87
2021/12/18 02:58:35;;;;;;;5.90;2.40;;;10.30;99.60;;;;;;5081164;28;20024;-87
2021/12/18 03:01:02;;;;;;;5.63;2.67;;;10.30;99.60;;;;;;5095646;28;20027;-87
2021/12/18 03:03:31;;;;;;;6.20;2.58;;;10.30;99.60;;;;;;5095290;28;20025;-87
2021/12/18 03:06:48;;;;;;;5.53;2.55;;;10.20;99.60;;;;;;5077366;28;20059;-87
2021/12/18 03:09:01;;;;;;;6.93;2.78;;;10.20;99.60;;;;;;5080862;28;20032;-88
2021/12/18 03:25:07;;;;;;;5.60;2.55;;;10.20;99.70;;;;;;5111040;28;20034;-87
2021/12/18 03:27:32;;;;;;;5.82;2.53;;;10.20;99.70;;;;;;5085781;28;20154;-87
2021/12/18 03:29:58;;;;;;;6.28;2.70;;;10.10;99.70;;;;;;5084025;28;20122;-88
2021/12/18 03:32:24;;;;;;;6.35;2.83;;;10.10;99.70;;;;;;5084959;28;20023;-88
2021/12/18 03:34:51;;;;;;;6.85;2.67;;;10.10;99.80;;;;;;5085680;28;20027;-87
2021/12/18 03:37:18;;;;;;;6.85;2.78;;;10.10;99.80;;;;;;5085179;28;20024;-88
2021/12/18 03:39:45;;;;;;;6.40;2.80;;;10.10;99.90;;;;;;5085812;28;20032;-87
2021/12/18 03:42:12;;;;;;;8.07;3.65;;;10.10;99.80;;;;;;5085044;28;20032;-88
2021/12/18 03:44:38;;;;;;;7.38;2.70;;;10.00;99.80;;;;;;5086642;28;20468;-84
2021/12/18 03:47:05;;;;;;;5.47;2.85;;;10.00;99.90;;;;;;5093074;28;20016;-87
2021/12/18 03:49:30;;;;;;;5.45;2.80;;;10.00;99.90;;;;;;5083779;28;20032;-88
2021/12/18 03:51:56;;;;;;;6.97;2.38;;;10.00;99.90;;;;;;5082966;28;20389;-88
2021/12/18 03:54:23;;;;;;;4.60;2.05;;;10.00;99.90;;;;;;5083142;28;20443;-88
2021/12/18 03:56:48;;;;;;;5.47;2.38;;;10.00;99.90;;;;;;5083973;28;20016;-87
2021/12/18 03:59:14;;;;;;;5.88;2.65;;;10.00;99.90;;;;;;5082958;28;20028;-88
2021/12/18 04:01:40;;;;;;;4.93;2.28;;;10.00;99.90;;;;;;5082356;28;20023;-86
2021/12/18 04:04:06;;;;;;;5.95;2.28;;;9.90;99.90;;;;;;5101388;28;20036;-88
2021/12/18 04:06:32;;;;;;;6.55;2.45;;;9.80;99.90;;;;;;5083879;28;20119;-87
2021/12/18 04:08:58;;;;;;;4.28;2.15;;;9.90;99.90;;;;;;5102144;28;20032;-88
2021/12/18 04:11:24;;;;;;;4.70;1.80;;;9.90;99.90;;;;;;5083732;28;20357;-87
2021/12/18 04:13:50;;;;;;;5.40;2.30;;;9.90;99.90;;;;;;5084072;28;20078;-87
2021/12/18 04:16:17;;;;;;;4.82;2.00;;;9.90;99.90;;;;;;5085014;28;20513;-88
2021/12/18 04:18:42;;;;;;;4.22;2.00;;;9.90;99.80;;;;;;5093001;28;20141;-86
2021/12/18 04:21:08;;;;;;;4.50;1.88;;;9.90;99.80;;;;;;5110045;28;20028;-87
2021/12/18 04:23:34;;;;;;;5.25;2.53;;;9.90;99.80;;;;;;5092295;28;20016;-88
2021/12/18 04:26:00;;;;;;;5.03;1.80;;;9.90;99.80;;;;;;5110125;28;20078;-88
2021/12/18 04:28:25;;;;;;;5.30;1.98;;;9.90;99.80;;;;;;5088808;28;20016;-87
2021/12/18 04:30:51;;;;;;;3.15;1.88;;;9.90;99.70;;;;;;5103546;28;20024;-87
2021/12/18 04:33:18;;;;;;;6.07;2.10;;;9.90;99.80;;;;;;5099362;28;20029;-88
2021/12/18 04:35:43;;;;;;;4.78;1.92;;;9.90;99.80;;;;;;5079909;28;20021;-87
2021/12/18 04:38:09;;;;;;;4.47;1.90;;;9.90;99.80;;;;;;5079489;28;20032;-88
2021/12/18 04:40:35;;;;;;;5.18;2.30;;;9.90;99.70;;;;;;5079704;28;20020;-88
2021/12/18 04:43:03;;;;;;;6.47;3.42;;;9.90;99.70;;;;;;5079637;28;20329;-87
2021/12/18 04:45:28;;;;;;;5.40;2.75;;;9.90;99.70;;;;;;5079666;28;20464;-88
2021/12/18 04:47:55;;;;;;;6.72;2.95;;;9.90;99.70;;;;;;5080006;28;20043;-88
2021/12/18 04:50:22;;;;;;;5.07;2.30;;;9.90;99.70;;;;;;5097562;28;20032;-88
2021/12/18 04:52:48;;;;;;;6.05;2.13;;;9.90;99.80;;;;;;5079242;28;20054;-87
2021/12/18 04:55:14;;;;;;;4.32;1.90;;;9.80;99.80;;;;;;5079406;28;20017;-88
2021/12/18 04:57:41;;;;;;;6.47;2.25;;;9.80;99.80;;;;;;5080092;28;20134;-88
2021/12/18 05:00:10;;;;;;;4.93;2.15;;;9.80;99.80;;;;;;5097847;28;20475;-88
2021/12/18 05:02:42;;;;;;;4.10;2.30;;;9.90;99.80;;;;;;5079746;28;20464;-88
2021/12/18 05:05:11;;;;;;;4.53;2.15;;;9.80;99.80;;;;;;5078657;28;20028;-88
2021/12/18 05:07:37;;;;;;;5.93;2.38;;;9.80;99.80;;;;;;5079177;28;20042;-88
2021/12/18 05:10:05;;;;;;;6.10;2.30;;;9.80;99.80;;;;;;5078778;28;20024;-87
2021/12/18 05:12:31;;;;;;;3.70;1.95;;;9.90;99.80;;;;;;5078975;28;20024;-88
2021/12/18 05:14:57;;;;;;;5.97;2.28;;;9.90;99.80;;;;;;5097288;28;20479;-88
2021/12/18 05:17:22;;;;;;;6.18;2.58;;;9.90;99.80;;;;;;5097494;28;20428;-88
2021/12/18 05:19:48;;;;;;;6.57;2.30;;;9.90;99.80;;;;;;5085722;28;20024;-88
2021/12/18 05:22:14;;;;;;;6.28;2.63;;;9.90;99.80;;;;;;5089905;28;20064;-87
2021/12/18 05:24:41;;;;;;;5.90;2.35;;;9.90;99.90;;;;;;5079347;28;20608;-88
2021/12/18 05:27:07;;;;;;;6.05;2.47;;;9.90;99.90;;;;;;5096623;28;20032;-89
2021/12/18 05:29:33;;;;;;;7.05;2.80;;;9.90;99.90;;;;;;5078703;28;20028;-89
2021/12/18 05:31:59;;;;;;;5.15;2.53;;;9.90;99.90;;;;;;5096455;28;20047;-89
2021/12/18 05:34:26;;;;;;;6.53;2.35;;;9.90;99.90;;;;;;5077530;28;20020;-88
2021/12/18 05:39:21;;;;;;;5.40;2.38;;;9.90;99.90;;;;;;5099039;28;20036;-89
2021/12/18 05:41:50;;;;;;;4.53;2.05;;;9.90;99.90;;;;;;5078590;28;20017;-88
2021/12/18 05:44:21;;;;;;;7.32;2.65;;;9.90;99.90;;;;;;5097221;28;20084;-88
2021/12/18 05:46:47;;;;;;;6.13;2.33;;;9.90;99.90;;;;;;5078958;28;20031;-85
2021/12/18 05:49:13;;;;;;;3.80;1.73;;;9.90;99.90;;;;;;5096558;28;20471;-88
2021/12/18 05:51:40;;;;;;;4.78;1.90;;;9.80;99.90;;;;;;5078274;28;20110;-89
2021/12/18 05:54:07;;;;;;;4.00;1.45;;;9.80;99.90;;;;;;5077806;28;20564;-89
2021/12/18 05:56:33;;;;;;;4.82;1.83;;;9.70;99.90;;;;;;5095960;28;20028;-88
2021/12/18 05:58:59;;;;;;;3.72;1.60;;;9.70;99.90;;;;;;5078025;28;20073;-87
2021/12/18 06:01:26;;;;;;;3.45;1.48;;;9.70;99.90;;;;;;5078080;28;20020;-87
2021/12/18 06:03:52;;;;;;;3.80;1.90;;;9.70;99.90;;;;;;5077958;28;20020;-87
2021/12/18 06:06:21;;;;;;;3.58;1.48;;;9.80;99.90;;;;;;5078152;28;20016;-88
2021/12/18 06:08:46;;;;;;;3.80;1.52;;;9.80;99.90;;;;;;5098752;28;20056;-87
2021/12/18 06:11:16;;;;;;;3.60;1.58;;;9.70;99.90;;;;;;5079290;28;20460;-87
2021/12/18 06:13:44;;;;;;;4.63;1.70;;;9.80;99.90;;;;;;5095792;28;20484;-88
2021/12/18 06:16:11;;;;;;;3.38;1.42;;;9.80;99.90;;;;;;5077581;28;20020;-88
2021/12/18 06:18:44;;;;;;;2.40;1.20;;;9.80;99.90;;;;;;5095727;28;20020;-88
2021/12/18 06:21:14;;;;;;;2.55;1.38;;;9.80;99.90;;;;;;5096283;28;20020;-88
2021/12/18 06:23:41;;;;;;;3.28;1.48;;;9.80;99.80;;;;;;5078750;28;20437;-88
2021/12/18 06:26:07;;;;;;;4.35;1.40;;;9.80;99.80;;;;;;5077627;28;20024;-88
2021/12/18 06:28:33;;;;;;;3.90;1.50;;;9.80;99.80;;;;;;5078679;28;20022;-88
2021/12/18 06:31:01;;;;;;;3.45;1.48;;;9.70;99.70;;;;;;5103083;28;20028;-87
2021/12/18 06:33:26;;;;;;;3.38;1.40;;;9.70;99.80;;;;;;5079134;28;20028;-87
2021/12/18 06:35:52;;;;;;;3.13;1.55;;;9.60;99.80;;;;;;5078562;28;20022;-87
2021/12/18 06:38:18;;;;;;;5.05;1.55;;;9.50;99.90;;;;;;5077939;28;20019;-87
2021/12/18 06:40:44;;;;;;;3.38;1.40;;;9.50;99.90;;;;;;5097029;28;20020;-87
2021/12/18 06:43:10;;;;;;;1.92;1.02;;;9.40;99.90;;;;;;5082480;28;20072;-87
2021/12/18 06:45:36;;;;;;;2.28;1.00;;;9.40;99.90;;;;;;5085664;28;20105;-88
2021/12/18 06:48:02;;;;;;;1.95;0.95;;;9.40;99.90;;;;;;5105597;28;20031;-86
2021/12/18 06:50:28;;;;;;;1.45;0.80;;;9.40;99.90;;;;;;5091356;28;20066;-87
2021/12/18 06:52:54;;;;;;;1.40;0.85;;;9.40;99.90;;;;;;5092816;28;20004;-84
2021/12/18 06:55:20;;;;;;;1.67;0.80;;;9.40;99.90;;;;;;5107709;28;20050;-87
2021/12/18 06:57:46;;;;;;;1.42;0.63;;;9.40;99.90;;;;;;5093239;28;20035;-87
2021/12/18 07:00:14;;;;;;;1.58;0.75;;;9.40;99.90;;;;;;5077534;28;20026;-88
2021/12/18 07:02:41;;;;;;;0.90;0.57;;;9.40;99.90;;;;;;5077605;28;20039;-88
2021/12/18 07:05:08;;;;;;;1.50;0.63;;;9.30;99.90;;;;;;5078204;28;20484;-87
2021/12/18 07:07:35;;;;;;;1.90;0.90;;;9.20;99.90;;;;;;5096005;28;20027;-87
2021/12/18 07:10:01;;;;;;;1.88;0.70;;;9.20;99.90;;;;;;5077976;28;20036;-87
2021/12/18 07:12:27;;;;;;;1.35;0.70;;;9.20;99.90;;;;;;5079377;28;20442;-86
2021/12/18 07:14:52;;;;;;;0.50;0.40;;;9.20;99.90;;;;;;5082782;28;20048;-84
2021/12/18 07:17:18;;;;;;;1.60;0.80;;;9.10;99.90;;;;;;5078021;28;20140;-87
2021/12/18 07:19:44;;;;;;;2.75;0.70;;;9.10;99.90;;;;;;5077877;28;20490;-87
2021/12/18 07:22:09;;;;;;;0.98;0.50;;;9.10;99.90;;;;;;5095702;28;20448;-86
2021/12/18 07:24:35;;;;;;;1.25;0.70;;;9.10;99.90;;;;;;5095284;28;20028;-87
2021/12/18 07:27:01;;;;;;;0.90;0.60;;;9.00;99.90;;;;;;5094945;28;20024;-87
2021/12/18 07:29:27;;;;;;;1.25;0.60;;;9.00;99.90;;;;;;5076838;28;20032;-88
2021/12/18 07:31:52;;;;;;;2.03;0.93;;;9.00;99.90;;;;;;5076909;28;20460;-87
2021/12/18 07:34:18;;;;;;;1.50;0.70;;;9.00;99.90;;;;;;5077042;28;20071;-87
2021/12/18 07:36:45;;;;;;;1.15;0.73;;;8.90;99.90;;;;;;5076779;28;20024;-87
2021/12/18 07:39:11;;;;;;;1.40;0.68;;;8.90;99.90;;;;;;5076828;28;20042;-87
2021/12/18 07:41:36;;;;;;;1.55;0.93;;;8.90;99.90;;;;;;5076605;28;20094;-87
2021/12/18 07:44:03;;;;;;;1.15;0.70;;;8.90;99.90;;;;;;5076753;28;20032;-88
2021/12/18 07:46:29;;;;;;;2.00;0.93;;;8.90;99.90;;;;;;5077471;28;20021;-87
2021/12/18 07:48:55;;;;;;;1.10;0.60;;;8.90;99.90;;;;;;5080315;28;20111;-84
2021/12/18 07:51:21;;;;;;;0.40;0.40;;;8.90;99.90;;;;;;5082693;28;20075;-87
2021/12/18 07:53:47;;;;;;;2.67;0.60;;;8.90;99.90;;;;;;5078737;28;20059;-87
2021/12/18 07:56:12;;;;;;;0.98;0.80;;;8.90;99.90;;;;;;5077308;28;20498;-87
2021/12/18 07:58:39;;;;;;;0.98;0.50;;;8.90;99.90;;;;;;5078359;28;20031;-90
2021/12/18 08:01:05;;;;;;;1.17;0.65;;;8.90;99.90;;;;;;5082980;28;20023;-86
2021/12/18 08:03:31;;;;;;;0.75;0.50;;;8.80;99.90;;;;;;5080617;28;20028;-77
2021/12/18 08:05:57;;;;;;;1.00;0.60;;;8.90;99.90;;;;;;5078250;28;20054;-77
2021/12/18 08:08:23;;;;;;;0.65;0.40;;;8.90;99.90;;;;;;5096242;28;20059;-76
2021/12/18 08:10:49;;;;;;;2.08;0.60;;;8.90;99.90;;;;;;5096337;28;20016;-76
2021/12/18 08:13:15;;;;;;;0.73;0.50;;;9.00;99.90;;;;;;5077704;28;20023;-77
2021/12/18 08:15:40;;;;;;;0.93;0.52;;;9.00;99.90;;;;;;5078650;28;20031;-76
2021/12/18 08:18:07;;;;;;;0.68;0.50;;;9.00;99.90;;;;;;5077663;28;20030;-76
2021/12/18 08:20:34;;;;;;;1.45;0.68;;;9.00;99.90;;;;;;5077548;28;20032;-76
2021/12/18 08:23:00;;;;;;;0.77;0.63;;;9.00;99.90;;;;;;5077760;28;20031;-80
2021/12/18 08:25:28;;;;;;;1.00;0.50;;;9.00;99.90;;;;;;5077671;28;20020;-77
2021/12/18 08:27:55;;;;;;;1.33;0.70;;;9.00;99.90;;;;;;5077811;28;20016;-76
2021/12/18 08:30:23;;;;;;;0.95;0.63;;;9.00;99.90;;;;;;5077971;28;20028;-77
2021/12/18 08:32:48;;;;;;;0.73;0.50;;;9.00;99.80;;;;;;5096274;28;20031;-77
2021/12/18 08:35:14;;;;;;;1.92;0.68;;;9.00;99.80;;;;;;5077670;28;20111;-77
2021/12/18 08:37:40;;;;;;;1.00;0.70;;;9.00;99.80;;;;;;5077599;28;20020;-75
2021/12/18 08:40:07;;;;;;;1.27;0.60;;;9.10;99.80;;;;;;5096165;28;20025;-78
2021/12/18 08:42:33;;;;;;;0.88;0.52;;;9.10;99.80;;;;;;5077341;28;20414;-77
2021/12/18 08:44:59;;;;;;;1.88;0.80;;;9.10;99.80;;;;;;5077420;28;20064;-77
2021/12/18 08:47:25;;;;;;;2.05;0.75;;;9.10;99.80;;;;;;5095614;28;20024;-76
2021/12/18 08:49:52;;;;;;;1.83;0.80;;;9.10;99.80;;;;;;5077090;28;20043;-77
2021/12/18 08:52:18;;;;;;;0.90;0.45;;;9.20;99.80;;;;;;5077250;28;20016;-77
2021/12/18 08:54:44;;;;;;;1.38;0.90;;;9.20;99.70;;;;;;5095524;28;20028;-77
2021/12/18 08:57:11;;;;;;;1.95;0.77;;;9.20;99.70;;;;;;5077431;28;20020;-77
2021/12/18 08:59:39;;;;;;;1.15;0.80;;;9.20;99.70;;;;;;5095983;28;20070;-77
2021/12/18 09:02:09;;;;;;;2.95;0.70;;;9.20;99.60;;;;;;5076987;28;20106;-78
2021/12/18 09:04:36;;;;;;;1.65;0.80;;;9.20;99.60;;;;;;5077241;28;20020;-76
2021/12/18 09:07:03;;;;;;;1.85;0.95;;;9.20;99.60;;;;;;5076931;28;20016;-79
2021/12/18 09:09:29;;;;;;;0.73;0.60;;;9.20;99.60;;;;;;5076331;28;20028;-77
2021/12/18 09:11:55;;;;;;;1.10;0.77;;;9.20;99.60;;;;;;5095965;28;20038;-76
2021/12/18 09:14:21;;;;;;;1.50;0.85;;;9.20;99.60;;;;;;5073039;28;20056;-78
2021/12/18 09:16:50;;;;;;;1.52;0.77;;;9.10;99.70;;;;;;5074468;28;20175;-78
2021/12/18 09:19:16;;;;;;;1.70;1.00;;;9.10;99.60;;;;;;5073056;28;20035;-78
2021/12/18 09:21:42;;;;;;;1.27;0.70;;;9.10;99.60;;;;;;5073469;28;20020;-77
2021/12/18 09:24:10;;;;;;;2.22;0.80;;;9.20;99.60;;;;;;5072882;28;20029;-78
2021/12/18 09:26:36;;;;;;;1.45;0.75;;;9.10;99.60;;;;;;5073403;28;20522;-77
2021/12/18 09:29:02;;;;;;;1.88;0.80;;;9.10;99.60;;;;;;5074435;28;20036;-78
2021/12/18 09:31:28;;;;;;;1.38;0.98;;;9.10;99.70;;;;;;5074101;28;20020;-76
2021/12/18 09:33:53;;;;;;;1.25;0.70;;;9.10;99.60;;;;;;5074042;28;20027;-76
2021/12/18 09:36:19;;;;;;;1.27;0.70;;;9.10;99.70;;;;;;5074444;28;20476;-76
2021/12/18 09:38:45;;;;;;;1.00;0.68;;;9.10;99.70;;;;;;5074312;28;20024;-76
2021/12/18 09:41:11;;;;;;;1.08;0.70;;;9.10;99.60;;;;;;5072811;28;20052;-77
2021/12/18 09:43:38;;;;;;;1.13;0.73;;;9.10;99.60;;;;;;5072828;28;20017;-77
2021/12/18 09:46:10;;;;;;;1.65;0.82;;;9.10;99.60;;;;;;5073980;28;20044;-77
2021/12/18 09:48:37;;;;;;;1.63;0.90;;;9.10;99.60;;;;;;5072734;28;20112;-77
2021/12/18 09:51:08;;;;;;;1.60;0.80;;;9.00;99.50;;;;;;5072923;28;20074;-77
2021/12/18 09:53:35;;;;;;;1.88;1.02;;;9.00;99.60;;;;;;5072411;28;20024;-77
2021/12/18 09:56:04;;;;;;;1.40;0.70;;;8.90;99.60;;;;;;5073821;28;20432;-77
2021/12/18 09:58:30;;;;;;;1.85;0.98;;;8.90;99.60;;;;;;5072571;28;20016;-77
2021/12/18 10:00:57;;;;;;;2.17;1.40;;;8.80;99.60;;;;;;5072797;28;20028;-78
2021/12/18 10:03:46;;;;;;;2.40;1.08;;;8.80;99.70;;;;;;5073504;28;20169;-79
2021/12/18 10:06:33;;;;;;;1.65;0.90;;;8.80;99.70;;;;;;5073811;28;20020;-78
2021/12/18 10:08:59;;;;;;;0.70;0.63;;;8.90;99.60;;;;;;5072528;28;20029;-78
2021/12/18 10:11:25;;;;;;;1.42;0.73;;;8.90;99.50;;;;;;5072951;28;20071;-78
2021/12/18 10:13:59;;;;;;;0.75;0.70;;;8.90;99.50;;;;;;5074144;28;20137;-78
2021/12/18 10:16:27;;;;;;;1.85;0.60;;;9.00;99.50;;;;;;5075846;28;20035;-78
2021/12/18 10:18:55;;;;;;;1.75;0.88;;;9.10;99.30;;;;;;5093817;28;20031;-78
2021/12/18 10:21:24;;;;;;;0.88;0.57;;;9.20;99.20;;;;;;5074759;28;20020;-78
2021/12/18 10:23:51;;;;;;;1.10;0.73;;;9.20;99.20;;;;;;5076203;28;20026;-78
2021/12/18 10:26:39;;;;;;;1.58;0.80;;;9.20;99.30;;;;;;5075291;28;20491;-78
2021/12/18 10:29:28;;;;;;;1.83;0.90;;;9.30;99.20;;;;;;5075452;28;20028;-79
2021/12/18 10:31:54;;;;;;;1.90;0.80;;;9.30;99.10;;;;;;5093552;28;20110;-78
2021/12/18 10:34:22;;;;;;;1.35;0.80;;;9.20;99.10;;;;;;5074735;28;20467;-78
2021/12/18 10:37:07;;;;;;;1.35;0.73;;;9.20;99.20;;;;;;5075337;28;20082;-78
2021/12/18 10:39:33;;;;;;;1.15;0.80;;;9.20;99.20;;;;;;5075419;28;20028;-78
2021/12/18 10:42:29;;;;;;;0.95;0.60;;;9.20;99.20;;;;;;5075151;28;20111;-78
2021/12/18 10:45:01;;;;;;;0.90;0.75;;;9.20;99.20;;;;;;5075429;28;20024;-78
2021/12/18 10:47:41;;;;;;;0.93;0.50;;;9.30;99.20;;;;;;5093170;28;20024;-78
2021/12/18 10:50:28;;;;;;;1.83;0.80;;;9.20;99.10;;;;;;5075150;28;20032;-78
2021/12/18 10:52:58;;;;;;;0.90;0.73;;;9.10;99.20;;;;;;5072724;28;20365;-78
2021/12/18 10:55:43;;;;;;;2.03;0.70;;;9.00;99.30;;;;;;5075280;28;20118;-78
2021/12/18 10:58:13;;;;;;;1.65;0.88;;;9.10;99.30;;;;;;5075692;28;20027;-83
2021/12/18 11:00:44;;;;;;;1.48;0.82;;;9.10;99.20;;;;;;5074780;28;20094;-78
2021/12/18 11:03:17;;;;;;;;;;;9.10;99.10;;;;;;5093471;28;20102;-79
2021/12/18 11:05:43;;;;;;;0.95;0.65;;;9.20;99.10;;;;;;5093583;28;20292;-78
2021/12/18 11:08:12;;;;;;;1.83;0.80;;;9.20;99.00;;;;;;5075132;28;20031;-78
2021/12/18 11:10:42;;;;;;;2.33;1.42;;;9.20;98.90;;;;;;5074954;28;20031;-78
2021/12/18 11:15:53;;;;;;;1.55;1.00;;;9.40;98.80;;;;;;5094149;28;20078;-78
2021/12/18 11:18:20;;;;;;;1.65;1.00;;;9.40;98.70;;;;;;5092927;28;20483;-78
2021/12/18 11:20:53;;;;;;;1.40;0.77;;;9.40;98.70;;;;;;5074708;28;20162;-77
2021/12/18 11:23:26;;;;;;;1.98;1.60;;;9.40;98.70;;;;;;5074426;28;20480;-78
2021/12/18 11:25:54;;;;;;;3.25;1.38;;;9.40;98.70;;;;;;5092959;28;20020;-78
2021/12/18 11:28:23;;;;;;;2.10;1.10;;;9.40;98.70;;;;;;5074603;28;20499;-77
2021/12/18 11:30:51;;;;;;;1.92;0.95;;;9.40;98.80;;;;;;5074389;28;20387;-77
2021/12/18 11:33:16;;;;;;;1.35;0.90;;;9.30;98.80;;;;;;5078091;28;20024;-78
2021/12/18 11:35:43;;;;;;;1.88;0.90;;;9.40;98.80;;;;;;5078385;28;20027;-77
2021/12/18 11:38:11;;;;;;;2.28;1.20;;;9.40;98.80;;;;;;5097224;28;20459;-77
2021/12/18 11:40:39;;;;;;;2.38;1.00;;;9.40;98.70;;;;;;5078579;28;20093;-78
2021/12/18 11:43:32;;;;;;;2.05;1.20;;;9.40;98.80;;;;;;5078656;28;20024;-77
2021/12/18 11:45:58;;;;;;;1.92;1.05;;;9.40;98.80;;;;;;5078524;28;20020;-78
2021/12/18 11:48:24;;;;;;;2.05;1.20;;;9.40;98.80;;;;;;5078484;28;20027;-77
2021/12/18 11:50:50;;;;;;;2.13;1.02;;;9.40;98.70;;;;;;5078543;28;20093;-78
2021/12/18 11:53:30;;;;;;;2.67;1.05;;;9.40;98.70;;;;;;5078176;28;20020;-78
2021/12/18 11:56:00;;;;;;;3.13;1.08;;;9.40;98.60;;;;;;5096646;28;20048;-78
2021/12/18 11:58:28;;;;;;;3.15;1.23;;;9.40;98.60;;;;;;5078289;28;20058;-77
2021/12/18 12:01:05;;;;;;;1.88;1.10;;;9.50;98.60;;;;;;5078187;28;20194;-77
2021/12/18 12:03:37;;;;;;;1.35;1.00;;;9.50;98.60;;;;;;5077912;28;20052;-77
2021/12/18 12:06:30;;;;;;;1.77;1.00;;;9.40;98.60;;;;;;5077987;28;20032;-77
2021/12/18 12:09:22;;;;;;;2.10;0.98;;;9.50;98.70;;;;;;5096147;28;20122;-77
2021/12/18 12:11:54;;;;;;;2.28;0.90;;;9.50;98.60;;;;;;5078264;28;20024;-77
2021/12/18 12:14:20;;;;;;;;;;;9.50;98.60;;;;;;5075046;28;20053;-77
2021/12/18 12:16:46;;;;;;;2.20;0.90;;;9.60;98.50;;;;;;5075957;28;20003;-78
2021/12/18 12:19:13;;;;;;;1.00;0.80;;;9.60;98.40;;;;;;5074394;28;20109;-78
2021/12/18 12:21:49;;;;;;;1.35;0.80;;;9.60;98.40;;;;;;5074509;28;20107;-78
2021/12/18 12:24:17;;;;;;;1.77;0.70;;;9.60;98.50;;;;;;5074497;28;20039;-84
2021/12/18 12:26:44;;;;;;;1.45;0.68;;;9.50;98.50;;;;;;5075772;28;20021;-77
2021/12/18 12:29:11;;;;;;;1.55;0.85;;;9.50;98.60;;;;;;5074383;28;20112;-77
2021/12/18 12:31:51;;;;;;;1.15;0.88;;;9.50;98.60;;;;;;5074155;28;20112;-78
2021/12/18 12:34:31;;;;;;;0.93;0.60;;;9.50;98.60;;;;;;5074245;28;20024;-78
2021/12/18 12:37:23;;;;;;;1.00;0.90;;;9.60;98.60;;;;;;5074290;28;20467;-78
2021/12/18 12:40:12;;;;;;;0.50;0.50;;;9.60;98.50;;;;;;5074106;28;20029;-78
2021/12/18 12:42:41;;;;;;;0.60;0.45;;;9.60;98.50;;;;;;5074407;28;20105;-77
2021/12/18 12:45:13;;;;;;;1.00;0.50;;;9.70;98.50;;;;;;5073381;28;20024;-78
2021/12/18 12:47:39;;;;;;;1.02;0.52;;;9.70;98.40;;;;;;5074008;28;20024;-77
2021/12/18 12:50:07;;;;;;;0.82;0.55;;;9.80;98.40;;;;;;5074549;28;20036;-76
2021/12/18 12:52:51;;;;;;;1.38;0.70;;;9.80;98.40;;;;;;5073875;28;20024;-77
2021/12/18 12:55:19;;;;;;;1.17;0.50;;;9.90;98.30;;;;;;5073717;28;20017;-82
2021/12/18 12:57:57;;;;;;;1.95;0.75;;;9.90;98.30;;;;;;5075091;28;20452;-78
2021/12/18 13:00:23;;;;;;;0.50;0.50;;;9.90;98.30;;;;;;5073836;28;20025;-78
2021/12/18 13:02:58;;;;;;;1.33;0.50;;;9.90;98.20;;;;;;5074096;28;20482;-78
2021/12/18 13:05:26;;;;;;;0.98;0.60;;;9.90;98.30;;;;;;5075045;28;20044;-78
2021/12/18 13:07:54;;;;;;;0.77;0.68;;;9.90;98.30;;;;;;5073346;28;20043;-78
2021/12/18 13:10:32;;;;;;;0.50;0.50;;;9.90;98.30;;;;;;5073499;28;20028;-78
2021/12/18 13:13:13;;;;;;;0.77;0.73;;;10.00;98.30;;;;;;5073697;28;20067;-78
2021/12/18 13:15:58;;;;;;;0.70;0.57;;;10.00;98.30;;;;;;5091373;28;20129;-77
2021/12/18 13:18:29;;;;;;;0.73;0.60;;;10.00;98.30;;;;;;5076775;28;20023;-78
2021/12/18 13:21:17;;;;;;;1.27;0.50;;;10.00;98.30;;;;;;5076768;28;20635;-78
2021/12/18 13:23:55;;;;;;;1.17;1.00;;;10.10;98.30;;;;;;5094977;28;20039;-78
2021/12/18 13:26:43;;;;;;;0.30;0.30;;;10.10;98.20;;;;;;5076576;28;20106;-79
2021/12/18 13:29:16;;;;;;;0.75;0.50;;;10.00;98.30;;;;;;5076120;28;20078;-77
2021/12/18 13:31:52;;;;;;;0.45;0.40;;;10.00;98.30;;;;;;5076562;28;20422;-78
2021/12/18 13:34:32;;;;;;;0.82;0.68;;;10.00;98.40;;;;;;5094629;28;20024;-77
2021/12/18 13:37:01;;;;;;;1.23;0.60;;;9.90;98.40;;;;;;5094713;28;20023;-77
2021/12/18 13:39:43;;;;;;;1.08;0.60;;;9.90;98.50;;;;;;5077147;28;20024;-78
2021/12/18 13:42:14;;;;;;;;;;;9.90;98.50;;;;;;5076297;28;20020;-78
2021/12/18 13:44:40;;;;;;;1.13;0.57;;;9.90;98.60;;;;;;5076057;28;19904;-77
2021/12/18 13:47:23;;;;;;;1.75;0.75;;;9.90;98.60;;;;;;5076837;28;20043;-78
2021/12/18 13:49:50;;;;;;;0.90;0.80;;;9.90;98.60;;;;;;5094364;28;20028;-77
2021/12/18 13:52:39;;;;;;;1.17;0.77;;;9.90;98.60;;;;;;5076697;28;20028;-78